Time;durP1;ratioP1;P1;durP2;ratioP2;P2;SDS_P1;SDS_P2;PMS_P1;PMS_P2;Temp;Humidity;BMP_temperature;BMP_pressure;BME280_temperature;BME280_humidity;BME280_pressure;Samples;Min_cycle;Max_cycle;Signal;HPM_P1;HPM_P2
2022/08/06 00:01:59;;;;;;;5.88;1.90;;;18.40;89.90;;;;;;6060557;23;20103;-76
2022/08/06 00:04:25;;;;;;;7.03;1.85;;;18.40;90.00;;;;;;6060592;23;20033;-75
2022/08/06 00:06:52;;;;;;;6.60;1.85;;;18.30;90.30;;;;;;6061188;23;20030;-75
2022/08/06 00:09:19;;;;;;;4.13;1.60;;;18.30;90.00;;;;;;6059958;23;20030;-75
2022/08/06 00:11:46;;;;;;;10.20;2.10;;;18.30;89.90;;;;;;6060905;23;20033;-74
2022/08/06 00:14:14;;;;;;;7.18;2.30;;;18.30;90.50;;;;;;6059865;23;20097;-75
2022/08/06 00:16:42;;;;;;;5.68;1.70;;;18.30;90.30;;;;;;6060657;23;20030;-76
2022/08/06 00:19:09;;;;;;;9.32;2.00;;;18.20;90.30;;;;;;6060166;23;20365;-74
2022/08/06 00:21:36;;;;;;;6.35;1.70;;;18.20;90.30;;;;;;6061007;23;20029;-75
2022/08/06 00:24:03;;;;;;;6.68;1.75;;;18.20;90.70;;;;;;6060473;23;20025;-75
2022/08/06 00:26:29;;;;;;;7.38;1.60;;;18.10;90.60;;;;;;6061076;23;20026;-76
2022/08/06 00:28:56;;;;;;;6.45;2.30;;;18.10;90.70;;;;;;6060219;23;20537;-75
2022/08/06 00:31:23;;;;;;;7.43;2.15;;;18.10;91.00;;;;;;6060882;23;20027;-75
2022/08/06 00:33:52;;;;;;;6.15;2.13;;;18.00;91.00;;;;;;6060940;23;20111;-74
2022/08/06 00:36:19;;;;;;;5.57;1.80;;;18.00;90.90;;;;;;6060817;23;20098;-74
2022/08/06 00:38:46;;;;;;;4.70;1.75;;;18.00;90.90;;;;;;6060267;23;20027;-75
2022/08/06 00:41:14;;;;;;;4.43;1.88;;;17.90;91.00;;;;;;6060651;23;20356;-76
2022/08/06 00:43:42;;;;;;;4.93;2.17;;;17.90;91.40;;;;;;6060739;23;20019;-74
2022/08/06 00:46:09;;;;;;;6.80;2.15;;;17.90;91.60;;;;;;6060691;23;20026;-75
2022/08/06 00:48:36;;;;;;;6.80;2.10;;;17.80;91.30;;;;;;6060222;23;20065;-75
2022/08/06 00:51:05;;;;;;;7.05;2.05;;;17.80;91.70;;;;;;6059967;23;20073;-75
2022/08/06 00:53:32;;;;;;;6.10;2.10;;;17.80;91.80;;;;;;6060421;23;20038;-74
2022/08/06 00:56:00;;;;;;;4.22;1.70;;;17.80;92.00;;;;;;6060916;23;20033;-74
2022/08/06 00:58:28;;;;;;;6.20;2.20;;;17.70;92.50;;;;;;6060096;23;20023;-75
2022/08/06 01:00:55;;;;;;;16.20;2.28;;;17.70;92.80;;;;;;6060524;23;20086;-75
2022/08/06 01:03:22;;;;;;;6.18;2.10;;;17.60;92.90;;;;;;6058866;23;20026;-75
2022/08/06 01:05:56;;;;;;;6.90;2.00;;;17.60;92.80;;;;;;6060286;23;20029;-77
2022/08/06 01:08:35;;;;;;;6.57;2.30;;;17.60;93.00;;;;;;6060327;23;20121;-76
2022/08/06 01:11:03;;;;;;;5.85;1.92;;;17.50;93.30;;;;;;6060285;23;20025;-75
2022/08/06 01:13:30;;;;;;;9.63;1.90;;;17.50;93.20;;;;;;6060351;23;20026;-76
2022/08/06 01:16:06;;;;;;;6.60;2.00;;;17.50;93.50;;;;;;6059889;23;20456;-75
2022/08/06 01:18:39;;;;;;;5.80;2.10;;;17.50;93.40;;;;;;6060235;23;20023;-75
2022/08/06 01:21:14;;;;;;;6.35;1.88;;;17.40;93.30;;;;;;6060498;23;20018;-75
2022/08/06 01:24:08;;;;;;;5.65;2.40;;;17.40;93.30;;;;;;6060480;23;20023;-75
2022/08/06 01:26:37;;;;;;;6.65;2.47;;;17.40;93.40;;;;;;6060049;23;20033;-76
2022/08/06 01:29:07;;;;;;;8.30;2.03;;;17.40;93.40;;;;;;6060214;23;20440;-75
2022/08/06 01:31:39;;;;;;;5.53;2.30;;;17.30;93.60;;;;;;6060672;23;20058;-75
2022/08/06 01:34:11;;;;;;;5.13;2.05;;;17.30;93.60;;;;;;6060292;23;20098;-74
2022/08/06 01:36:41;;;;;;;6.15;2.60;;;17.30;93.40;;;;;;6060347;23;20092;-75
2022/08/06 01:39:10;;;;;;;5.95;2.30;;;17.30;93.60;;;;;;6058347;23;20027;-75
2022/08/06 01:41:45;;;;;;;6.43;2.03;;;17.20;93.70;;;;;;6060330;23;20027;-76
2022/08/06 01:44:17;;;;;;;5.80;1.98;;;17.20;93.70;;;;;;6060114;23;20015;-75
2022/08/06 01:46:47;;;;;;;8.75;1.92;;;17.20;93.80;;;;;;6060309;23;20077;-76
2022/08/06 01:49:17;;;;;;;8.00;2.80;;;17.20;93.80;;;;;;6059819;23;20421;-75
2022/08/06 01:51:45;;;;;;;5.18;2.08;;;17.20;93.90;;;;;;6060424;23;20102;-76
2022/08/06 01:54:15;;;;;;;5.55;2.08;;;17.20;94.10;;;;;;6060702;23;20089;-77
2022/08/06 01:56:44;;;;;;;6.97;2.35;;;17.20;94.20;;;;;;6058729;23;20033;-76
2022/08/06 01:59:13;;;;;;;10.82;2.42;;;17.10;94.30;;;;;;6060030;23;20624;-76
2022/08/06 02:01:43;;;;;;;4.43;2.10;;;17.10;94.50;;;;;;6060466;23;20039;-75
2022/08/06 02:04:11;;;;;;;5.50;2.38;;;17.00;94.20;;;;;;6060630;23;20023;-75
2022/08/06 02:06:43;;;;;;;5.80;2.05;;;17.00;94.40;;;;;;6061724;23;20046;-75
2022/08/06 02:09:44;;;;;;;6.13;2.40;;;17.10;94.70;;;;;;6060358;23;20027;-76
2022/08/06 02:16:26;;;;;;;5.93;2.20;;;16.90;94.90;;;;;;6005614;23;19948;-75
2022/08/06 02:18:54;;;;;;;8.95;2.30;;;16.90;94.90;;;;;;6060892;23;20046;-75
2022/08/06 02:21:22;;;;;;;6.95;2.40;;;16.90;94.90;;;;;;6061214;23;20019;-75
2022/08/06 02:23:50;;;;;;;7.07;2.42;;;16.80;94.80;;;;;;6061109;23;20014;-75
2022/08/06 02:26:18;;;;;;;10.35;3.25;;;16.80;95.40;;;;;;6061374;23;20050;-75
2022/08/06 02:28:45;;;;;;;5.13;2.15;;;16.80;95.60;;;;;;6060724;23;20034;-75
2022/08/06 02:31:13;;;;;;;7.30;2.40;;;16.80;95.50;;;;;;6061196;23;20580;-75
2022/08/06 02:33:40;;;;;;;5.03;1.88;;;16.70;95.70;;;;;;6061155;23;20034;-75
2022/08/06 02:36:14;;;;;;;4.82;2.10;;;16.70;95.80;;;;;;6061635;23;20019;-76
2022/08/06 02:38:46;;;;;;;8.15;2.72;;;16.70;96.00;;;;;;6060792;23;20027;-75
2022/08/06 02:41:17;;;;;;;5.38;2.17;;;16.60;96.00;;;;;;6061359;23;20057;-75
2022/08/06 02:43:49;;;;;;;9.65;2.55;;;16.60;96.20;;;;;;6061300;23;20015;-75
2022/08/06 02:46:22;;;;;;;6.20;2.20;;;16.60;96.30;;;;;;6061604;23;20464;-75
2022/08/06 02:48:52;;;;;;;7.65;2.00;;;16.50;96.50;;;;;;6060587;23;20026;-76
2022/08/06 02:51:21;;;;;;;5.60;2.08;;;16.50;96.30;;;;;;6061493;23;20053;-76
2022/08/06 02:53:57;;;;;;;8.63;2.28;;;16.50;96.40;;;;;;6061104;23;20515;-76
2022/08/06 02:56:26;;;;;;;6.35;1.95;;;16.50;96.50;;;;;;6061135;23;20414;-75
2022/08/06 02:58:54;;;;;;;6.30;2.20;;;16.50;96.60;;;;;;6060344;23;20454;-75
2022/08/06 03:01:25;;;;;;;4.07;1.90;;;16.40;96.50;;;;;;6061357;23;20097;-75
2022/08/06 03:03:53;;;;;;;7.82;2.42;;;16.40;96.60;;;;;;6061340;23;20049;-75
2022/08/06 03:06:22;;;;;;;4.53;1.95;;;16.40;96.80;;;;;;6061460;23;20046;-75
2022/08/06 03:08:50;;;;;;;11.82;2.20;;;16.40;96.80;;;;;;6060932;23;20033;-75
2022/08/06 03:11:17;;;;;;;4.90;1.70;;;16.30;97.10;;;;;;6059258;23;20023;-75
2022/08/06 03:13:45;;;;;;;5.88;1.92;;;16.30;97.10;;;;;;6061003;23;20026;-75
2022/08/06 03:16:12;;;;;;;6.50;1.90;;;16.20;97.10;;;;;;6060243;23;20029;-74
2022/08/06 03:18:43;;;;;;;6.20;1.83;;;16.20;97.10;;;;;;6060728;23;20042;-75
2022/08/06 03:21:10;;;;;;;5.82;1.70;;;16.20;97.30;;;;;;6082944;23;20409;-75
2022/08/06 03:23:38;;;;;;;6.18;1.80;;;16.20;97.30;;;;;;6060929;23;20015;-75
2022/08/06 03:26:06;;;;;;;4.15;1.77;;;16.20;97.60;;;;;;6061721;23;20390;-75
2022/08/06 03:28:35;;;;;;;5.95;1.83;;;16.20;97.80;;;;;;6060327;23;20054;-75
2022/08/06 03:31:02;;;;;;;3.95;1.58;;;16.20;97.50;;;;;;6061161;23;20023;-75
2022/08/06 03:33:29;;;;;;;4.75;1.65;;;16.10;97.60;;;;;;6061007;23;20039;-75
2022/08/06 03:36:00;;;;;;;4.90;1.48;;;16.10;97.90;;;;;;6061275;23;20066;-76
2022/08/06 03:38:28;;;;;;;6.57;2.10;;;16.10;97.80;;;;;;6060747;23;20081;-75
2022/08/06 03:40:56;;;;;;;5.57;2.05;;;16.10;97.90;;;;;;6060696;23;20029;-75
2022/08/06 03:43:23;;;;;;;6.40;1.90;;;16.10;97.90;;;;;;6061125;23;20552;-75
2022/08/06 03:45:53;;;;;;;6.03;1.83;;;16.00;97.80;;;;;;6061161;23;20030;-76
2022/08/06 03:48:25;;;;;;;9.52;2.15;;;16.00;97.90;;;;;;6061085;23;20025;-75
2022/08/06 03:50:52;;;;;;;5.10;1.90;;;16.00;98.10;;;;;;6060695;23;20022;-75
2022/08/06 03:53:23;;;;;;;6.35;1.75;;;16.00;98.20;;;;;;6061187;23;20011;-75
2022/08/06 03:55:51;;;;;;;5.25;1.42;;;16.00;98.10;;;;;;6060494;23;20484;-78
2022/08/06 03:58:18;;;;;;;4.57;1.52;;;15.90;98.20;;;;;;6060607;23;20027;-79
2022/08/06 04:00:48;;;;;;;4.03;1.40;;;15.90;98.30;;;;;;6060569;23;20029;-78
2022/08/06 04:03:15;;;;;;;7.03;1.67;;;15.90;98.30;;;;;;6061112;23;20069;-82
2022/08/06 04:05:43;;;;;;;5.18;1.70;;;15.90;98.40;;;;;;6061137;23;20030;-82
2022/08/06 04:08:11;;;;;;;5.68;1.65;;;15.90;98.30;;;;;;6060682;23;20117;-84
2022/08/06 04:10:41;;;;;;;4.90;1.90;;;15.80;98.30;;;;;;6060474;23;20023;-85
2022/08/06 04:13:11;;;;;;;5.00;1.83;;;15.80;98.50;;;;;;6061189;23;20388;-84
2022/08/06 04:15:39;;;;;;;4.93;1.80;;;15.80;98.50;;;;;;6060515;23;20210;-85
2022/08/06 04:18:06;;;;;;;6.45;2.17;;;15.80;98.90;;;;;;6060175;23;20089;-84
2022/08/06 04:20:34;;;;;;;6.60;1.58;;;15.80;99.00;;;;;;6060789;23;20353;-84
2022/08/06 04:23:01;;;;;;;8.40;1.63;;;15.80;99.10;;;;;;6058692;23;20113;-84
2022/08/06 04:25:32;;;;;;;5.80;1.80;;;15.80;99.00;;;;;;6060444;23;20081;-84
2022/08/06 04:28:01;;;;;;;4.93;1.65;;;15.80;99.10;;;;;;6060474;23;20019;-84
2022/08/06 04:30:28;;;;;;;6.85;2.00;;;15.80;99.20;;;;;;6060498;23;20019;-84
2022/08/06 04:32:56;;;;;;;6.45;1.67;;;15.80;99.30;;;;;;6059519;23;20050;-84
2022/08/06 04:35:23;;;;;;;4.07;1.50;;;15.80;99.30;;;;;;6060778;23;20019;-83
2022/08/06 04:37:50;;;;;;;5.20;1.65;;;15.80;99.30;;;;;;6060867;23;20106;-83
2022/08/06 04:40:17;;;;;;;3.60;1.42;;;15.80;99.60;;;;;;6060377;23;20101;-83
2022/08/06 04:42:44;;;;;;;4.35;1.77;;;15.80;99.60;;;;;;6061300;23;20057;-83
2022/08/06 04:45:13;;;;;;;4.25;1.50;;;15.80;99.70;;;;;;6061238;23;20023;-84
2022/08/06 04:47:40;;;;;;;5.80;1.83;;;15.80;99.80;;;;;;6060537;23;20084;-84
2022/08/06 04:50:07;;;;;;;4.53;1.88;;;15.80;99.90;;;;;;6059974;23;20125;-84
2022/08/06 04:52:34;;;;;;;4.43;1.55;;;15.80;99.90;;;;;;6060298;23;20097;-83
2022/08/06 04:55:01;;;;;;;4.85;1.80;;;15.80;99.90;;;;;;6060588;23;20073;-85
2022/08/06 04:57:28;;;;;;;3.88;1.80;;;15.80;99.90;;;;;;6060444;23;20098;-83
2022/08/06 04:59:55;;;;;;;4.18;1.80;;;15.90;99.90;;;;;;6060019;23;20097;-82
2022/08/06 05:02:23;;;;;;;4.28;2.15;;;15.90;99.90;;;;;;6060721;23;20027;-82
2022/08/06 05:04:55;;;;;;;7.35;2.55;;;15.90;99.90;;;;;;6060588;23;20381;-82
2022/08/06 05:07:24;;;;;;;6.28;1.95;;;15.90;99.90;;;;;;6060843;23;20105;-78
2022/08/06 05:09:51;;;;;;;6.05;1.73;;;16.00;99.90;;;;;;6059535;23;20030;-79
2022/08/06 05:12:22;;;;;;;6.22;1.80;;;16.00;99.90;;;;;;6060621;23;20046;-78
2022/08/06 05:14:53;;;;;;;7.38;1.90;;;16.00;99.90;;;;;;6060205;23;20022;-79
2022/08/06 05:17:25;;;;;;;5.35;2.30;;;16.00;99.90;;;;;;6060490;23;20360;-79
2022/08/06 05:19:56;;;;;;;4.75;2.08;;;16.10;99.90;;;;;;6060060;23;20118;-79
2022/08/06 05:22:23;;;;;;;5.72;2.10;;;16.10;99.90;;;;;;6060962;23;20023;-79
2022/08/06 05:24:50;;;;;;;11.68;2.47;;;16.20;99.90;;;;;;6060384;23;20019;-79
2022/08/06 05:27:19;;;;;;;7.20;2.13;;;16.20;99.90;;;;;;6060982;23;20525;-79
2022/08/06 05:29:47;;;;;;;6.05;2.25;;;16.30;99.90;;;;;;6059865;23;20058;-79
2022/08/06 05:32:14;;;;;;;5.70;2.53;;;16.30;99.90;;;;;;6060813;23;20402;-79
2022/08/06 05:34:42;;;;;;;6.55;2.15;;;16.30;99.90;;;;;;6060852;23;20014;-79
2022/08/06 05:37:09;;;;;;;8.02;2.40;;;16.40;99.90;;;;;;6060718;23;20026;-79
2022/08/06 05:39:36;;;;;;;6.45;2.35;;;16.50;99.90;;;;;;6059938;23;20412;-80
2022/08/06 05:42:03;;;;;;;5.50;2.45;;;16.50;99.90;;;;;;6060966;23;20058;-79
2022/08/06 05:44:30;;;;;;;6.80;2.45;;;16.60;99.90;;;;;;6060069;23;20025;-80
2022/08/06 05:47:02;;;;;;;7.82;2.15;;;16.70;99.90;;;;;;6061005;23;20027;-79
2022/08/06 05:49:31;;;;;;;8.75;2.58;;;16.80;99.90;;;;;;6059510;23;20019;-80
2022/08/06 05:52:03;;;;;;;8.93;2.60;;;16.90;99.90;;;;;;6060524;23;20050;-80
2022/08/06 05:54:35;;;;;;;6.90;2.10;;;16.90;99.90;;;;;;6060303;23;20097;-81
2022/08/06 05:57:05;;;;;;;10.65;3.00;;;17.00;99.90;;;;;;6060205;23;20026;-81
2022/08/06 05:59:36;;;;;;;6.67;2.10;;;17.00;99.90;;;;;;6059877;23;20085;-80
2022/08/06 06:02:03;;;;;;;8.13;2.40;;;17.10;99.70;;;;;;6059152;23;20042;-80
2022/08/06 06:04:33;;;;;;;7.15;2.33;;;17.10;99.60;;;;;;6060692;23;20099;-81
2022/08/06 06:07:01;;;;;;;8.50;2.85;;;17.30;99.50;;;;;;6060506;23;20035;-81
2022/08/06 06:09:29;;;;;;;13.75;3.38;;;17.40;99.50;;;;;;6060523;23;20357;-81
2022/08/06 06:11:57;;;;;;;6.50;2.60;;;17.40;99.30;;;;;;6060396;23;20023;-81
2022/08/06 06:14:38;;;;;;;7.63;2.30;;;17.50;99.20;;;;;;6059586;23;20442;-81
2022/08/06 06:17:14;;;;;;;8.27;2.50;;;17.60;99.20;;;;;;6059604;23;20515;-82
2022/08/06 06:19:47;;;;;;;11.45;2.83;;;17.70;98.40;;;;;;6059695;23;20425;-82
2022/08/06 06:22:20;;;;;;;9.88;2.70;;;17.80;97.40;;;;;;6058715;23;20413;-81
2022/08/06 06:24:51;;;;;;;8.52;2.28;;;18.00;98.10;;;;;;6060280;23;20097;-81
2022/08/06 06:27:23;;;;;;;7.78;2.47;;;18.00;97.40;;;;;;6060425;23;20022;-82
2022/08/06 06:29:51;;;;;;;;;;;18.20;96.40;;;;;;6060331;23;20441;-80
2022/08/06 06:32:23;;;;;;;7.25;2.40;;;18.30;96.90;;;;;;6060369;23;19944;-79
2022/08/06 06:34:55;;;;;;;6.65;2.40;;;18.40;96.10;;;;;;6058914;23;20449;-76
2022/08/06 06:37:38;;;;;;;5.90;2.58;;;18.50;96.20;;;;;;6060075;23;20082;-76
2022/08/06 06:40:18;;;;;;;7.43;2.28;;;18.60;95.10;;;;;;6059330;23;20030;-76
2022/08/06 06:42:58;;;;;;;7.32;2.40;;;18.60;94.60;;;;;;6059893;23;20058;-77
2022/08/06 06:45:31;;;;;;;7.25;2.00;;;18.70;95.60;;;;;;6082109;23;20034;-76
2022/08/06 06:48:00;;;;;;;8.55;2.47;;;18.80;96.10;;;;;;6059290;23;20122;-76
2022/08/06 06:50:31;;;;;;;8.55;2.20;;;18.80;94.30;;;;;;6059830;23;20093;-76
2022/08/06 06:53:00;;;;;;;4.80;1.85;;;18.90;94.20;;;;;;6061235;23;20019;-75
2022/08/06 06:55:32;;;;;;;7.57;2.20;;;19.00;94.40;;;;;;6061304;23;20015;-77
2022/08/06 06:58:03;;;;;;;6.00;1.80;;;19.00;94.90;;;;;;6060955;23;20027;-77
2022/08/06 07:00:30;;;;;;;6.15;1.70;;;19.10;94.60;;;;;;6061050;23;20046;-78
2022/08/06 07:02:59;;;;;;;7.32;2.17;;;19.10;91.90;;;;;;6057526;23;20019;-76
2022/08/06 07:05:26;;;;;;;5.95;1.35;;;19.20;91.80;;;;;;6060977;23;20015;-78
2022/08/06 07:07:53;;;;;;;5.88;1.63;;;19.10;93.70;;;;;;6060897;23;20523;-79
2022/08/06 07:10:23;;;;;;;7.20;1.70;;;19.20;92.60;;;;;;6061025;23;20082;-78
2022/08/06 07:12:51;;;;;;;4.82;1.30;;;19.30;93.10;;;;;;6060218;23;20047;-77
2022/08/06 07:15:20;;;;;;;5.88;1.38;;;19.30;91.70;;;;;;6060172;23;20039;-77
2022/08/06 07:17:49;;;;;;;3.88;1.50;;;19.40;91.70;;;;;;6060702;23;20023;-77
2022/08/06 07:20:20;;;;;;;11.38;2.00;;;19.40;91.20;;;;;;6060482;23;20350;-77
2022/08/06 07:22:48;;;;;;;3.17;1.08;;;19.40;91.80;;;;;;6060715;23;20457;-77
2022/08/06 07:25:16;;;;;;;6.03;1.08;;;19.50;91.50;;;;;;6060647;23;20019;-77
2022/08/06 07:27:46;;;;;;;2.97;1.08;;;19.50;90.70;;;;;;6060760;23;20041;-77
2022/08/06 07:30:16;;;;;;;4.70;1.55;;;19.50;91.80;;;;;;6060688;23;20536;-77
2022/08/06 07:32:44;;;;;;;7.35;1.50;;;19.50;90.40;;;;;;6059785;23;20100;-78
2022/08/06 07:35:12;;;;;;;4.68;1.23;;;19.50;89.30;;;;;;6060722;23;20046;-77
2022/08/06 07:37:43;;;;;;;5.55;1.73;;;19.50;88.70;;;;;;6059449;23;20046;-78
2022/08/06 07:40:20;;;;;;;6.05;1.48;;;19.50;89.10;;;;;;6060333;23;20076;-78
2022/08/06 07:42:52;;;;;;;5.70;1.40;;;19.60;91.00;;;;;;6058229;23;20573;-78
2022/08/06 07:45:19;;;;;;;3.72;1.27;;;19.70;88.70;;;;;;6060924;23;20019;-78
2022/08/06 07:47:47;;;;;;;3.45;1.10;;;19.70;87.90;;;;;;6060754;23;20031;-78
2022/08/06 07:50:14;;;;;;;4.47;1.40;;;19.70;89.50;;;;;;6060647;23;20626;-78
2022/08/06 07:52:42;;;;;;;3.75;1.10;;;19.80;88.70;;;;;;6060231;23;20514;-78
2022/08/06 07:55:11;;;;;;;3.38;1.30;;;19.80;87.20;;;;;;6060845;23;20023;-78
2022/08/06 07:57:38;;;;;;;4.32;0.90;;;19.80;84.50;;;;;;6060392;23;20030;-78
2022/08/06 08:00:09;;;;;;;9.13;1.73;;;19.80;85.60;;;;;;6060642;23;20098;-78
2022/08/06 08:02:39;;;;;;;13.88;2.65;;;19.90;86.30;;;;;;6059955;23;20101;-77
2022/08/06 08:07:51;;;;;;;6.03;1.10;;;19.90;83.30;;;;;;6060633;23;20097;-77
2022/08/06 08:10:19;;;;;;;4.80;1.02;;;19.90;82.90;;;;;;6060629;23;20019;-76
2022/08/06 08:12:47;;;;;;;2.95;0.90;;;19.90;82.80;;;;;;6060617;23;20465;-76
2022/08/06 08:15:15;;;;;;;3.22;0.80;;;19.90;83.20;;;;;;6060191;23;20349;-76
2022/08/06 08:17:42;;;;;;;2.40;0.90;;;20.00;84.10;;;;;;6060266;23;20030;-76
2022/08/06 08:20:11;;;;;;;3.22;1.00;;;20.00;82.00;;;;;;6060771;23;20030;-77
2022/08/06 08:22:39;;;;;;;3.88;0.90;;;20.00;82.00;;;;;;6059699;23;20023;-78
2022/08/06 08:25:08;;;;;;;2.15;0.70;;;20.00;81.60;;;;;;6060202;23;20022;-78
2022/08/06 08:27:35;;;;;;;5.85;1.10;;;20.00;80.30;;;;;;6060493;23;20030;-82
2022/08/06 08:30:02;;;;;;;3.58;0.90;;;20.00;79.80;;;;;;6060504;23;20018;-84
2022/08/06 08:32:30;;;;;;;4.55;0.95;;;20.00;80.90;;;;;;6060162;23;20022;-84
2022/08/06 08:34:57;;;;;;;4.35;1.00;;;20.00;80.50;;;;;;6060972;23;20073;-84
2022/08/06 08:37:25;;;;;;;6.13;0.90;;;20.10;80.60;;;;;;6060306;23;20101;-84
2022/08/06 08:39:52;;;;;;;3.45;0.85;;;20.00;80.00;;;;;;6060511;23;20050;-84
2022/08/06 08:42:23;;;;;;;4.18;0.80;;;20.00;80.60;;;;;;6058704;23;20069;-84
2022/08/06 08:44:50;;;;;;;2.25;0.60;;;20.00;80.10;;;;;;6060802;23;20029;-83
2022/08/06 08:47:18;;;;;;;1.33;0.60;;;20.00;78.90;;;;;;6060069;23;20023;-82
2022/08/06 08:49:48;;;;;;;2.63;0.68;;;20.00;77.70;;;;;;6059855;23;20029;-82
2022/08/06 08:52:16;;;;;;;2.25;0.88;;;20.00;78.00;;;;;;6060026;23;20118;-82
2022/08/06 08:54:47;;;;;;;1.38;0.50;;;20.10;78.20;;;;;;6060133;23;20018;-80
2022/08/06 08:57:15;;;;;;;2.53;0.75;;;20.10;77.40;;;;;;6060550;23;20398;-81
2022/08/06 08:59:42;;;;;;;3.58;0.65;;;20.20;78.40;;;;;;6060420;23;20027;-82
2022/08/06 09:02:13;;;;;;;1.98;0.70;;;20.20;76.80;;;;;;6059951;23;20093;-82
2022/08/06 09:04:41;;;;;;;2.40;0.50;;;20.30;77.50;;;;;;6059500;23;20823;-82
2022/08/06 09:07:10;;;;;;;3.30;0.73;;;20.30;75.70;;;;;;6060137;23;20487;-81
2022/08/06 09:09:38;;;;;;;3.65;0.73;;;20.30;75.70;;;;;;6058271;23;20023;-82
2022/08/06 09:12:07;;;;;;;2.28;0.70;;;20.30;78.00;;;;;;6058541;23;20027;-82
2022/08/06 09:14:34;;;;;;;1.98;0.75;;;20.40;76.40;;;;;;6058468;23;20030;-82
2022/08/06 09:17:02;;;;;;;1.88;0.60;;;20.40;75.90;;;;;;6060205;23;20094;-81
2022/08/06 09:19:29;;;;;;;4.72;0.60;;;20.50;75.50;;;;;;6060086;23;20464;-82
2022/08/06 09:21:56;;;;;;;2.97;0.80;;;20.50;77.70;;;;;;6060734;23;20787;-82
2022/08/06 09:24:25;;;;;;;2.47;0.60;;;20.50;78.20;;;;;;6060388;23;20101;-82
2022/08/06 09:27:06;;;;;;;3.35;0.90;;;20.60;76.80;;;;;;6060353;23;20030;-82
2022/08/06 09:29:34;;;;;;;2.10;0.75;;;20.60;75.10;;;;;;6060244;23;20357;-82
2022/08/06 09:32:03;;;;;;;2.33;0.60;;;20.60;75.40;;;;;;6059788;23;20054;-82
2022/08/06 09:34:35;;;;;;;2.85;0.70;;;20.70;76.90;;;;;;6060190;23;20023;-82
2022/08/06 09:37:02;;;;;;;2.28;0.60;;;20.90;74.80;;;;;;6060488;23;20023;-82
2022/08/06 09:39:39;;;;;;;3.25;0.70;;;20.70;73.50;;;;;;6060398;23;20073;-82
2022/08/06 09:42:07;;;;;;;8.18;0.60;;;20.70;71.30;;;;;;6060553;23;20034;-84
2022/08/06 09:44:34;;;;;;;3.67;0.75;;;20.70;72.90;;;;;;6060528;23;20397;-85
2022/08/06 09:47:01;;;;;;;4.47;0.65;;;20.60;70.60;;;;;;6058329;23;20041;-85
2022/08/06 09:49:28;;;;;;;2.80;0.90;;;20.70;71.30;;;;;;6060076;23;20022;-78
2022/08/06 09:52:12;;;;;;;2.22;0.57;;;20.70;72.50;;;;;;6060204;23;20101;-86
2022/08/06 09:54:41;;;;;;;3.17;0.70;;;20.70;71.80;;;;;;6059830;23;20030;-87
2022/08/06 09:57:08;;;;;;;1.63;0.63;;;20.70;71.10;;;;;;6060051;23;20023;-88
2022/08/06 09:59:44;;;;;;;3.25;0.80;;;20.80;71.40;;;;;;6059700;23;20356;-88
2022/08/06 10:02:13;;;;;;;3.03;0.73;;;20.80;70.70;;;;;;6060019;23;20033;-88
2022/08/06 10:04:40;;;;;;;3.85;0.75;;;20.80;71.70;;;;;;6060306;23;20471;-88
2022/08/06 10:07:07;;;;;;;2.80;0.63;;;20.80;69.80;;;;;;6059980;23;20043;-88
2022/08/06 10:09:37;;;;;;;3.47;0.60;;;20.90;71.20;;;;;;6059849;23;20334;-88
2022/08/06 10:12:17;;;;;;;1.65;0.55;;;20.90;71.20;;;;;;6059662;23;20023;-86
2022/08/06 10:14:44;;;;;;;2.70;0.63;;;20.90;68.40;;;;;;6060306;23;20022;-86
2022/08/06 10:17:13;;;;;;;4.55;2.20;;;20.90;69.00;;;;;;6060019;23;20110;-85
2022/08/06 10:19:42;;;;;;;7.32;1.40;;;21.00;70.60;;;;;;6060653;23;20023;-92
2022/08/06 10:22:10;;;;;;;3.13;1.00;;;21.00;73.60;;;;;;6058926;23;20049;-91
2022/08/06 10:24:38;;;;;;;3.33;0.80;;;21.20;74.30;;;;;;6060169;23;20050;-91
2022/08/06 10:27:09;;;;;;;2.10;0.80;;;21.10;74.40;;;;;;6060955;23;20022;-93
2022/08/06 10:29:38;;;;;;;2.65;1.00;;;21.10;73.90;;;;;;6061326;23;20706;-90
2022/08/06 10:32:06;;;;;;;3.22;0.90;;;21.10;74.30;;;;;;6061660;23;20049;-85
2022/08/06 10:34:36;;;;;;;3.58;1.08;;;21.10;75.20;;;;;;6060393;23;20025;-87
2022/08/06 10:37:07;;;;;;;3.42;0.80;;;21.10;75.80;;;;;;6057611;23;20099;-88
2022/08/06 10:39:36;;;;;;;4.70;0.95;;;21.00;74.00;;;;;;6059877;23;20073;-90
2022/08/06 10:42:04;;;;;;;2.88;0.80;;;21.10;76.40;;;;;;6059472;23;20663;-87
2022/08/06 10:44:35;;;;;;;2.72;0.68;;;21.10;74.30;;;;;;6060043;23;20361;-87
2022/08/06 10:47:03;;;;;;;4.53;0.80;;;21.10;72.70;;;;;;6060731;23;20034;-82
2022/08/06 10:49:30;;;;;;;3.78;1.02;;;21.10;71.60;;;;;;6058707;23;20457;-81
2022/08/06 10:51:57;;;;;;;4.75;1.00;;;21.10;71.40;;;;;;6059661;23;20019;-91
2022/08/06 10:54:25;;;;;;;4.20;0.90;;;21.10;71.20;;;;;;6060495;23;20412;-90
2022/08/06 10:56:53;;;;;;;2.63;0.90;;;21.10;71.00;;;;;;6061847;23;20518;-90
2022/08/06 10:59:20;;;;;;;2.83;0.82;;;21.10;71.90;;;;;;6061007;23;20018;-90
2022/08/06 11:01:55;;;;;;;2.85;0.70;;;21.20;73.30;;;;;;6060269;23;20033;-90
2022/08/06 11:04:34;;;;;;;4.15;0.98;;;21.20;75.90;;;;;;6061562;23;20073;-90
2022/08/06 11:07:28;;;;;;;2.20;0.70;;;21.20;72.80;;;;;;6059521;23;20123;-90
2022/08/06 11:10:04;;;;;;;3.60;0.90;;;21.20;71.30;;;;;;6061051;23;20073;-90
2022/08/06 11:12:47;;;;;;;4.57;0.95;;;21.20;72.70;;;;;;6061292;23;20128;-90
2022/08/06 11:15:14;;;;;;;2.25;0.70;;;21.20;73.10;;;;;;6061487;23;20443;-91
2022/08/06 11:17:48;;;;;;;3.78;0.80;;;21.20;72.60;;;;;;6061167;23;20018;-90
2022/08/06 11:20:41;;;;;;;2.53;0.60;;;21.20;71.40;;;;;;6058821;23;20862;-91
2022/08/06 11:23:25;;;;;;;5.22;0.98;;;21.20;71.90;;;;;;6061331;23;20023;-91
2022/08/06 11:25:53;;;;;;;3.05;0.80;;;21.20;71.90;;;;;;6044198;23;20033;-91
2022/08/06 11:28:21;;;;;;;1.98;0.65;;;21.20;71.00;;;;;;6060733;23;20090;-90
2022/08/06 11:30:50;;;;;;;1.40;0.50;;;21.20;71.20;;;;;;6059057;23;20397;-90
2022/08/06 11:33:21;;;;;;;1.50;0.70;;;21.30;70.70;;;;;;6059746;23;20037;-90
2022/08/06 11:35:49;;;;;;;2.33;0.77;;;21.30;70.80;;;;;;6061413;23;20026;-91
2022/08/06 11:38:38;;;;;;;1.42;0.52;;;21.30;70.80;;;;;;6060956;23;20030;-90
2022/08/06 11:41:09;;;;;;;2.22;0.75;;;21.40;70.00;;;;;;6059361;23;20339;-90
2022/08/06 11:43:56;;;;;;;4.88;0.82;;;21.40;71.00;;;;;;6061190;23;20019;-90
2022/08/06 11:46:25;;;;;;;5.85;1.15;;;21.40;70.50;;;;;;6061051;23;20100;-90
2022/08/06 11:49:21;;;;;;;3.78;0.80;;;21.40;71.20;;;;;;6059635;23;20027;-90
2022/08/06 11:51:53;;;;;;;4.03;0.80;;;21.40;67.10;;;;;;6042105;23;20057;-90
2022/08/06 11:54:22;;;;;;;3.13;0.80;;;21.50;69.70;;;;;;6061566;23;20023;-89
2022/08/06 11:57:20;;;;;;;2.40;0.70;;;21.50;68.80;;;;;;6061237;23;20026;-89
2022/08/06 12:00:14;;;;;;;2.53;0.52;;;21.50;65.70;;;;;;6058197;23;20027;-89
2022/08/06 12:02:55;;;;;;;2.65;0.80;;;21.40;66.40;;;;;;6059289;23;20031;-90
2022/08/06 12:05:42;;;;;;;1.70;0.52;;;21.40;66.00;;;;;;6059508;23;20078;-86
2022/08/06 12:08:19;;;;;;;2.13;0.75;;;21.40;65.70;;;;;;6059846;23;20082;-86
2022/08/06 12:11:24;;;;;;;1.70;0.60;;;21.40;66.20;;;;;;6059821;23;20026;-86
2022/08/06 12:13:51;;;;;;;4.15;0.77;;;21.50;64.50;;;;;;6060077;23;20353;-86
2022/08/06 12:16:32;;;;;;;2.45;0.70;;;21.50;66.80;;;;;;6060806;23;20030;-86
2022/08/06 12:19:00;;;;;;;1.92;0.68;;;21.50;68.10;;;;;;6060308;23;20022;-86
2022/08/06 12:21:29;;;;;;;1.77;0.52;;;21.50;66.10;;;;;;6061153;23;20025;-86
2022/08/06 12:23:57;;;;;;;1.40;0.50;;;21.60;66.30;;;;;;6060577;23;20492;-86
2022/08/06 12:26:24;;;;;;;4.78;0.80;;;21.60;66.40;;;;;;6059853;23;20046;-90
2022/08/06 12:28:51;;;;;;;2.25;0.70;;;21.60;66.10;;;;;;6060761;23;20022;-91
2022/08/06 12:31:32;;;;;;;4.18;0.60;;;21.70;65.60;;;;;;6060419;23;20046;-91
2022/08/06 12:33:59;;;;;;;5.55;0.60;;;21.70;65.30;;;;;;6060605;23;20150;-81
2022/08/06 12:36:29;;;;;;;2.13;0.80;;;21.70;64.90;;;;;;6060595;23;20098;-81
2022/08/06 12:38:57;;;;;;;2.38;0.70;;;21.70;66.50;;;;;;6060156;23;20030;-81
2022/08/06 12:41:37;;;;;;;2.92;0.88;;;21.70;66.80;;;;;;6060886;23;20023;-81
2022/08/06 12:44:04;;;;;;;3.35;0.82;;;21.70;64.50;;;;;;6060995;23;20061;-81
2022/08/06 12:46:31;;;;;;;1.88;0.65;;;21.70;65.60;;;;;;6057201;23;20429;-81
2022/08/06 12:48:59;;;;;;;1.80;0.60;;;21.70;64.80;;;;;;6058789;23;20106;-81
2022/08/06 12:51:27;;;;;;;1.88;0.60;;;21.70;64.70;;;;;;6058236;23;20097;-81
2022/08/06 12:53:57;;;;;;;1.75;0.60;;;21.70;64.00;;;;;;6060011;23;20050;-80
2022/08/06 12:56:24;;;;;;;3.20;0.60;;;21.70;64.90;;;;;;6060632;23;20093;-80
2022/08/06 12:58:52;;;;;;;2.58;0.80;;;21.70;64.80;;;;;;6082669;23;20353;-81
2022/08/06 13:01:22;;;;;;;3.55;0.70;;;21.70;65.50;;;;;;6059762;23;20023;-80
2022/08/06 13:03:51;;;;;;;1.33;0.65;;;21.70;63.90;;;;;;6060941;23;20023;-81
2022/08/06 13:06:20;;;;;;;6.50;0.85;;;21.70;64.60;;;;;;6059050;23;20033;-81
2022/08/06 13:08:49;;;;;;;3.50;0.80;;;21.70;66.70;;;;;;6060297;23;20053;-81